createdAt,value
2023-04-27T00:00:56.297Z,0.55
2023-04-27T00:01:56.336Z,0.48
2023-04-27T00:02:56.657Z,0.62
2023-04-27T00:03:56.586Z,0.59
2023-04-27T00:04:56.778Z,0.72
2023-04-27T00:05:56.625Z,0.77
2023-04-27T00:06:56.606Z,0.86
2023-04-27T00:07:56.701Z,0.57
2023-04-27T00:08:56.768Z,0.86
2023-04-27T00:09:56.809Z,0.94
2023-04-27T00:10:56.866Z,0.58
2023-04-27T00:11:56.869Z,0.79
2023-04-27T00:12:57.008Z,0.63
2023-04-27T00:13:57.005Z,0.58
2023-04-27T00:14:57.027Z,0.33
2023-04-27T00:15:57.182Z,0.66
2023-04-27T00:16:57.189Z,0.55
2023-04-27T00:17:57.457Z,0.64
2023-04-27T00:18:57.285Z,0.68
2023-04-27T00:19:57.351Z,0.82
2023-04-27T00:20:57.383Z,0.61
2023-04-27T00:21:57.460Z,0.46
2023-04-27T00:22:57.578Z,0.57
2023-04-27T00:23:57.632Z,0.39
2023-04-27T00:24:57.683Z,0.49
2023-04-27T00:25:57.697Z,0.60
2023-04-27T00:26:57.757Z,0.59
2023-04-27T00:27:57.837Z,0.46
2023-04-27T00:28:57.906Z,0.70
2023-04-27T00:29:57.932Z,0.49
2023-04-27T00:30:57.982Z,0.53
2023-04-27T00:31:58.050Z,0.52
2023-04-27T00:32:58.101Z,0.61
2023-04-27T00:33:58.134Z,0.59
2023-04-27T00:34:58.167Z,0.45
2023-04-27T00:35:58.273Z,0.37
2023-04-27T00:36:58.275Z,0.43
2023-04-27T00:37:58.325Z,0.62
2023-04-27T00:38:58.403Z,0.42
2023-04-27T00:39:58.429Z,0.34
2023-04-27T00:40:58.528Z,0.51
2023-04-27T00:41:58.554Z,0.42
2023-04-27T00:42:58.577Z,0.73
2023-04-27T00:43:58.665Z,0.57
2023-04-27T00:44:58.673Z,0.53
2023-04-27T00:45:58.793Z,0.72
2023-04-27T00:46:58.779Z,0.63
2023-04-27T00:47:58.909Z,0.71
2023-04-27T00:48:58.890Z,0.75
2023-04-27T00:49:58.910Z,0.46
2023-04-27T00:50:58.988Z,0.49
2023-04-27T00:51:59.002Z,0.53
2023-04-27T00:52:59.031Z,0.58
2023-04-27T00:53:59.118Z,0.47
2023-04-27T00:54:59.168Z,0.56
2023-04-27T00:55:59.160Z,0.79
2023-04-27T00:56:59.240Z,0.47
2023-04-27T00:57:59.276Z,0.38
2023-04-27T00:58:59.311Z,0.48
2023-04-27T00:59:59.355Z,0.40
2023-04-27T01:00:59.438Z,0.55
2023-04-27T01:01:59.498Z,0.77
2023-04-27T01:02:59.665Z,0.36
2023-04-27T01:03:59.727Z,0.38
2023-04-27T01:04:59.648Z,0.70
2023-04-27T01:05:59.705Z,0.56
2023-04-27T01:06:59.753Z,0.68
2023-04-27T01:07:59.822Z,0.51
2023-04-27T01:08:59.874Z,0.69
2023-04-27T01:09:59.950Z,0.51
2023-04-27T01:10:59.991Z,0.76
2023-04-27T01:12:00.061Z,0.61
2023-04-27T01:13:00.066Z,0.89
2023-04-27T01:14:00.115Z,0.45
2023-04-27T01:15:00.133Z,0.76
2023-04-27T01:16:00.129Z,0.52
2023-04-27T01:17:00.262Z,0.79
2023-04-27T01:18:00.219Z,0.57
2023-04-27T01:19:00.159Z,0.37
2023-04-27T01:20:00.351Z,0.54
2023-04-27T01:21:00.279Z,0.88
2023-04-27T01:22:00.295Z,0.61
2023-04-27T01:23:00.353Z,0.43
2023-04-27T01:24:00.343Z,0.75
2023-04-27T01:25:00.383Z,0.54
2023-04-27T01:26:00.376Z,0.54
2023-04-27T01:27:00.468Z,0.48
2023-04-27T01:28:00.462Z,0.63
2023-04-27T01:29:00.487Z,0.53
2023-04-27T01:30:00.501Z,0.58
2023-04-27T01:31:00.525Z,0.39
2023-04-27T01:32:00.538Z,0.52
2023-04-27T01:33:00.567Z,0.45
2023-04-27T01:34:00.553Z,0.49
2023-04-27T01:35:00.568Z,0.44
2023-04-27T01:36:00.635Z,0.69
2023-04-27T01:37:00.638Z,0.61
2023-04-27T01:38:00.679Z,0.64
2023-04-27T01:39:00.690Z,0.48
2023-04-27T01:40:00.724Z,0.59
2023-04-27T01:41:00.826Z,0.71
2023-04-27T01:42:00.787Z,0.59
2023-04-27T01:43:00.822Z,0.49
2023-04-27T01:44:00.839Z,0.53
2023-04-27T01:45:00.903Z,0.25
2023-04-27T01:46:01.023Z,0.55
2023-04-27T01:47:00.954Z,0.61
2023-04-27T01:48:01.003Z,0.62
2023-04-27T01:49:00.999Z,0.56
2023-04-27T01:50:00.977Z,0.48
2023-04-27T01:51:01.040Z,0.51
2023-04-27T01:52:01.051Z,0.51
2023-04-27T01:53:01.090Z,0.45
2023-04-27T01:54:01.061Z,0.43
2023-04-27T01:55:01.093Z,1.08
2023-04-27T01:56:01.122Z,0.61
2023-04-27T01:57:01.120Z,0.44
2023-04-27T01:58:01.106Z,0.65
2023-04-27T01:59:01.143Z,0.47
2023-04-27T02:00:01.138Z,0.49
2023-04-27T02:01:01.234Z,0.79
2023-04-27T02:02:01.189Z,0.37
2023-04-27T02:03:01.391Z,0.73
2023-04-27T02:04:01.365Z,0.34
2023-04-27T02:05:01.176Z,0.69
2023-04-27T02:06:01.180Z,0.69
2023-04-27T02:07:01.194Z,3.13
2023-04-27T02:08:01.198Z,0.45
2023-04-27T02:09:01.202Z,0.53
2023-04-27T02:10:01.204Z,0.49
2023-04-27T02:11:01.251Z,0.52
2023-04-27T02:12:01.226Z,0.53
2023-04-27T02:13:01.273Z,0.55
2023-04-27T02:14:01.287Z,0.50
2023-04-27T02:15:01.245Z,0.53
2023-04-27T02:16:01.283Z,0.59
2023-04-27T02:17:01.283Z,0.52
2023-04-27T02:18:01.313Z,0.53
2023-04-27T02:19:01.270Z,0.46
2023-04-27T02:20:01.271Z,0.61
2023-04-27T02:21:01.290Z,0.53
2023-04-27T02:22:01.255Z,0.45
2023-04-27T02:23:01.306Z,0.36
2023-04-27T02:24:01.278Z,0.56
2023-04-27T02:25:01.309Z,0.43
2023-04-27T02:26:01.280Z,0.71
2023-04-27T02:27:01.284Z,0.61
2023-04-27T02:28:01.299Z,0.52
2023-04-27T02:29:01.309Z,0.47
2023-04-27T02:30:01.321Z,0.30
2023-04-27T02:31:01.358Z,0.58
2023-04-27T02:32:01.369Z,0.56
2023-04-27T02:33:01.366Z,0.42
2023-04-27T02:34:01.344Z,0.45
2023-04-27T02:35:01.456Z,0.62
2023-04-27T02:36:01.357Z,0.66
2023-04-27T02:37:01.362Z,0.63
2023-04-27T02:38:01.394Z,0.57
2023-04-27T02:39:01.401Z,0.35
2023-04-27T02:40:01.382Z,0.48
2023-04-27T02:41:01.386Z,0.57
2023-04-27T02:42:01.391Z,0.42
2023-04-27T02:43:01.414Z,0.50
2023-04-27T02:44:01.409Z,0.40
2023-04-27T02:45:01.392Z,0.38
2023-04-27T02:46:01.415Z,0.44
2023-04-27T02:47:01.417Z,0.36
2023-04-27T02:48:01.365Z,0.39
2023-04-27T02:49:01.345Z,0.43
2023-04-27T02:50:01.340Z,0.40
2023-04-27T02:51:01.340Z,0.63
2023-04-27T02:52:01.411Z,0.55
2023-04-27T02:53:01.306Z,0.60
2023-04-27T02:54:01.450Z,0.38
2023-04-27T02:55:01.335Z,0.99
2023-04-27T02:56:01.384Z,0.42
2023-04-27T02:57:01.346Z,0.36
2023-04-27T02:58:01.491Z,0.62
2023-04-27T02:59:01.336Z,0.34
2023-04-27T03:00:02.734Z,0.28
2023-04-27T03:01:01.409Z,0.51
2023-04-27T03:02:01.372Z,0.51
2023-04-27T03:03:01.452Z,0.62
2023-04-27T03:04:01.405Z,0.38
2023-04-27T03:05:01.356Z,0.47
2023-04-27T03:06:01.357Z,0.69
2023-04-27T03:07:01.352Z,0.29
2023-04-27T03:08:01.420Z,0.46
2023-04-27T03:09:01.372Z,0.51
2023-04-27T03:10:01.377Z,0.70
2023-04-27T03:11:01.335Z,0.42
2023-04-27T03:12:01.327Z,0.67
2023-04-27T03:13:01.347Z,0.46
2023-04-27T03:14:01.450Z,0.38
2023-04-27T03:15:01.340Z,0.47
2023-04-27T03:16:01.382Z,0.53
2023-04-27T03:17:01.318Z,0.36
2023-04-27T03:18:01.395Z,0.51
2023-04-27T03:19:01.315Z,0.44
2023-04-27T03:20:01.329Z,0.41
2023-04-27T03:21:01.330Z,0.42
2023-04-27T03:22:01.350Z,0.43
2023-04-27T03:23:01.370Z,0.50
2023-04-27T03:24:01.320Z,0.40
2023-04-27T03:25:01.366Z,0.36
2023-04-27T03:26:01.868Z,0.54
2023-04-27T03:27:01.408Z,0.36
2023-04-27T03:28:01.328Z,0.38
2023-04-27T03:29:01.333Z,0.73
2023-04-27T03:30:01.344Z,0.28
2023-04-27T03:31:01.333Z,0.55
2023-04-27T03:32:01.394Z,0.43
2023-04-27T03:33:01.395Z,0.38
2023-04-27T03:34:01.380Z,0.73
2023-04-27T03:35:01.373Z,0.55
2023-04-27T03:36:01.340Z,0.34
2023-04-27T03:37:01.354Z,0.44
2023-04-27T03:38:01.356Z,0.44
2023-04-27T03:39:01.406Z,0.52
2023-04-27T03:40:01.397Z,0.60
2023-04-27T03:41:01.336Z,0.20
2023-04-27T03:42:01.324Z,0.68
2023-04-27T03:43:01.305Z,0.35
2023-04-27T03:44:01.350Z,0.46
2023-04-27T03:45:01.309Z,0.77
2023-04-27T03:46:01.397Z,0.51
2023-04-27T03:47:01.330Z,0.58
2023-04-27T03:48:01.427Z,0.62
2023-04-27T03:49:01.338Z,0.60
2023-04-27T03:50:01.358Z,0.51
2023-04-27T03:51:01.394Z,0.45
2023-04-27T03:52:01.358Z,0.38
2023-04-27T03:53:01.359Z,0.59
2023-04-27T03:54:01.366Z,0.35
2023-04-27T03:55:01.371Z,0.55
2023-04-27T03:56:01.395Z,0.49
2023-04-27T03:57:01.355Z,0.38
2023-04-27T03:58:01.340Z,0.60
2023-04-27T03:59:01.360Z,0.36
2023-04-27T04:00:01.324Z,0.47
2023-04-27T04:01:01.369Z,0.52
2023-04-27T04:02:01.700Z,0.54
2023-04-27T04:03:01.534Z,0.35
2023-04-27T04:04:01.510Z,0.71
2023-04-27T04:05:01.386Z,0.54
2023-04-27T04:06:01.355Z,0.61
2023-04-27T04:07:01.371Z,0.76
2023-04-27T04:08:01.368Z,0.75
2023-04-27T04:09:01.391Z,0.66
2023-04-27T04:10:01.331Z,0.86
2023-04-27T04:11:01.392Z,0.81
2023-04-27T04:12:01.404Z,0.93
2023-04-27T04:13:01.348Z,0.93
2023-04-27T04:14:01.344Z,1.11
2023-04-27T04:15:01.361Z,0.85
2023-04-27T04:16:01.413Z,0.73
2023-04-27T04:17:01.350Z,0.79
2023-04-27T04:18:01.371Z,0.89
2023-04-27T04:19:01.359Z,0.85
2023-04-27T04:20:01.300Z,1.12
2023-04-27T04:21:01.356Z,0.80
2023-04-27T04:22:01.356Z,0.89
2023-04-27T04:23:01.301Z,1.23
2023-04-27T04:24:01.327Z,1.15
2023-04-27T04:25:01.361Z,1.35
2023-04-27T04:26:01.316Z,1.21
2023-04-27T04:27:01.323Z,1.20
2023-04-27T04:28:01.348Z,0.99
2023-04-27T04:29:01.310Z,1.01
2023-04-27T04:30:01.347Z,1.19
2023-04-27T04:31:01.437Z,0.99
2023-04-27T04:32:01.295Z,1.16
2023-04-27T04:33:01.377Z,1.08
2023-04-27T04:34:01.382Z,0.99
2023-04-27T04:35:01.340Z,1.50
2023-04-27T04:36:01.311Z,1.32
2023-04-27T04:37:01.352Z,1.40
2023-04-27T04:38:01.365Z,1.11
2023-04-27T04:39:01.370Z,1.24
2023-04-27T04:40:01.404Z,1.10
2023-04-27T04:41:01.359Z,1.35
2023-04-27T04:42:01.387Z,0.84
2023-04-27T04:43:01.391Z,1.24
2023-04-27T04:44:01.347Z,1.36
2023-04-27T04:45:01.380Z,1.08
2023-04-27T04:46:01.429Z,0.94
2023-04-27T04:47:01.512Z,0.85
2023-04-27T04:48:01.434Z,1.20
2023-04-27T04:49:01.436Z,1.11
2023-04-27T04:50:01.463Z,1.01
2023-04-27T04:51:01.467Z,0.93
2023-04-27T04:52:01.532Z,1.39
2023-04-27T04:53:01.470Z,1.18
2023-04-27T04:54:01.964Z,1.13
2023-04-27T04:55:01.469Z,1.01
2023-04-27T04:56:01.485Z,0.91
2023-04-27T04:57:01.454Z,1.10
2023-04-27T04:58:01.489Z,0.94
2023-04-27T04:59:01.513Z,1.06
2023-04-27T05:00:01.524Z,1.24
2023-04-27T05:01:01.468Z,1.12
2023-04-27T05:02:01.668Z,0.76
2023-04-27T05:03:01.668Z,1.21
2023-04-27T05:04:01.741Z,1.01
2023-04-27T05:05:01.542Z,1.05
2023-04-27T05:06:01.548Z,1.22
2023-04-27T05:07:01.562Z,0.91
2023-04-27T05:08:01.618Z,1.23
2023-04-27T05:09:01.637Z,1.04
2023-04-27T05:10:01.636Z,1.03
2023-04-27T05:11:01.625Z,1.18
2023-04-27T05:12:01.653Z,1.14
2023-04-27T05:13:01.706Z,1.19
2023-04-27T05:14:01.714Z,1.23
2023-04-27T05:15:01.719Z,0.96
2023-04-27T05:16:01.733Z,1.26
2023-04-27T05:17:01.736Z,1.08
2023-04-27T05:18:01.903Z,1.12
2023-04-27T05:19:01.787Z,0.97
2023-04-27T05:20:01.782Z,0.86
2023-04-27T05:21:01.803Z,0.80
2023-04-27T05:22:01.827Z,0.96
2023-04-27T05:23:01.877Z,1.20
2023-04-27T05:24:01.870Z,1.43
2023-04-27T05:25:01.897Z,1.20
2023-04-27T05:26:01.889Z,1.36
2023-04-27T05:27:02.433Z,1.08
2023-04-27T05:28:01.948Z,1.12
2023-04-27T05:29:01.983Z,1.01
2023-04-27T05:30:02.051Z,1.06
2023-04-27T05:31:02.033Z,1.09
2023-04-27T05:32:02.099Z,1.13
2023-04-27T05:33:02.107Z,1.23
2023-04-27T05:34:02.047Z,1.65
2023-04-27T05:35:02.091Z,1.74
2023-04-27T05:36:02.099Z,1.21
2023-04-27T05:37:02.134Z,1.34
2023-04-27T05:38:02.115Z,1.34
2023-04-27T05:39:02.149Z,1.52
2023-04-27T05:40:02.236Z,1.26
2023-04-27T05:41:02.202Z,2.17
2023-04-27T05:42:02.218Z,1.57
2023-04-27T05:43:02.175Z,1.64
2023-04-27T05:44:02.221Z,1.70
2023-04-27T05:45:02.216Z,2.02
2023-04-27T05:46:02.262Z,1.61
2023-04-27T05:47:02.270Z,2.07
2023-04-27T05:48:02.315Z,2.20
2023-04-27T05:49:02.219Z,1.75
2023-04-27T05:50:02.229Z,2.13
2023-04-27T05:51:02.196Z,2.26
2023-04-27T05:52:02.276Z,1.83
2023-04-27T05:53:02.233Z,1.58
2023-04-27T05:54:02.247Z,1.96
2023-04-27T05:55:02.231Z,1.96
2023-04-27T05:56:02.243Z,1.84
2023-04-27T05:57:02.254Z,1.70
2023-04-27T05:58:08.500Z,1.92
2023-04-27T05:59:03.254Z,2.03
2023-04-27T06:00:02.258Z,1.68
2023-04-27T06:01:02.243Z,2.00
2023-04-27T06:02:02.328Z,1.84
2023-04-27T06:03:02.606Z,2.00
2023-04-27T06:04:02.344Z,2.31
2023-04-27T06:05:02.322Z,2.09
2023-04-27T06:06:02.212Z,2.00
2023-04-27T06:07:02.193Z,1.65
2023-04-27T06:08:02.205Z,1.76
2023-04-27T06:09:02.197Z,2.42
2023-04-27T06:10:02.198Z,2.92
2023-04-27T06:11:02.195Z,2.11
2023-04-27T06:12:02.171Z,2.36
2023-04-27T06:13:02.166Z,1.89
2023-04-27T06:14:02.147Z,2.55
2023-04-27T06:15:02.163Z,2.54
2023-04-27T06:16:02.337Z,1.69
2023-04-27T06:17:02.140Z,2.13
2023-04-27T06:18:02.213Z,1.70
2023-04-27T06:19:02.152Z,1.98
2023-04-27T06:20:02.160Z,1.99
2023-04-27T06:21:02.409Z,2.01
2023-04-27T06:22:02.234Z,1.60
2023-04-27T06:23:02.241Z,1.98
2023-04-27T06:24:02.289Z,1.87
2023-04-27T06:25:02.334Z,1.72
2023-04-27T06:26:02.534Z,1.34
2023-04-27T06:27:02.479Z,1.76
2023-04-27T06:28:02.521Z,2.00
2023-04-27T06:29:02.594Z,1.53
2023-04-27T06:30:02.654Z,2.13
2023-04-27T06:31:02.675Z,2.00
2023-04-27T06:32:02.828Z,2.04
2023-04-27T06:33:02.897Z,1.95
2023-04-27T06:34:02.871Z,1.67
2023-04-27T06:35:02.937Z,1.80
2023-04-27T06:36:02.994Z,1.81
2023-04-27T06:37:03.030Z,1.31
2023-04-27T06:38:03.909Z,2.28
2023-04-27T06:39:03.169Z,2.07
2023-04-27T06:40:03.484Z,2.31
2023-04-27T06:41:03.259Z,2.92
2023-04-27T06:42:03.959Z,3.60
2023-04-27T06:43:03.442Z,3.58
2023-04-27T06:44:03.303Z,3.73
2023-04-27T06:45:04.020Z,3.90
2023-04-27T06:46:03.434Z,3.84
2023-04-27T06:47:03.378Z,3.98
2023-04-27T06:48:03.491Z,3.21
2023-04-27T06:49:03.314Z,3.01
2023-04-27T06:50:03.316Z,3.17
2023-04-27T06:51:03.342Z,3.51
2023-04-27T06:52:03.378Z,2.41
2023-04-27T06:53:03.305Z,3.23
2023-04-27T06:54:03.307Z,2.67
2023-04-27T06:55:03.348Z,3.12
2023-04-27T06:56:03.376Z,3.23
2023-04-27T06:57:03.481Z,2.89
2023-04-27T06:58:03.555Z,2.96
2023-04-27T06:59:03.592Z,2.95
2023-04-27T07:00:03.605Z,3.13
2023-04-27T07:01:03.790Z,2.27
2023-04-27T07:02:03.757Z,3.25
2023-04-27T07:03:03.906Z,3.11
2023-04-27T07:04:03.950Z,2.82
2023-04-27T07:05:03.909Z,3.28
2023-04-27T07:06:03.944Z,2.39
2023-04-27T07:07:04.021Z,2.87
2023-04-27T07:08:07.030Z,3.28
2023-04-27T07:09:07.961Z,3.19
2023-04-27T07:10:05.057Z,3.08
2023-04-27T07:11:04.046Z,2.53
2023-04-27T07:12:04.062Z,3.16
2023-04-27T07:13:05.508Z,2.69
2023-04-27T07:14:04.062Z,2.20
2023-04-27T07:15:04.073Z,2.15
2023-04-27T07:16:04.055Z,2.16
2023-04-27T07:17:04.043Z,2.64
2023-04-27T07:18:04.150Z,2.84
2023-04-27T07:19:04.003Z,2.73
2023-04-27T07:20:04.040Z,2.55
2023-04-27T07:21:04.015Z,2.36
2023-04-27T07:22:03.977Z,3.53
2023-04-27T07:23:04.034Z,2.61
2023-04-27T07:24:03.994Z,2.17
2023-04-27T07:25:03.969Z,2.50
2023-04-27T07:26:04.006Z,2.44
2023-04-27T07:27:03.961Z,2.41
2023-04-27T07:28:04.089Z,3.28
2023-04-27T07:29:18.715Z,2.61
2023-04-27T07:30:04.941Z,2.68
2023-04-27T07:31:03.971Z,2.73
2023-04-27T07:32:04.008Z,2.28
2023-04-27T07:33:03.922Z,14.71
2023-04-27T07:34:03.908Z,8.27
2023-04-27T07:35:03.917Z,5.01
2023-04-27T07:36:04.034Z,4.76
2023-04-27T07:37:03.917Z,3.68
2023-04-27T07:38:03.886Z,3.81
2023-04-27T07:39:03.863Z,3.88
2023-04-27T07:40:03.870Z,4.33
2023-04-27T07:41:03.978Z,4.37
2023-04-27T07:42:04.050Z,4.13
2023-04-27T07:43:04.083Z,4.19
2023-04-27T07:44:04.027Z,4.43
2023-04-27T07:45:04.038Z,3.34
2023-04-27T07:46:04.177Z,3.00
2023-04-27T07:47:04.043Z,3.43
2023-04-27T07:48:05.077Z,3.81
2023-04-27T07:49:04.097Z,3.16
2023-04-27T07:50:04.144Z,3.35
2023-04-27T07:51:04.217Z,3.20
2023-04-27T07:52:04.226Z,3.23
2023-04-27T07:53:04.301Z,3.38
2023-04-27T07:54:04.362Z,3.72
2023-04-27T07:55:04.381Z,3.32
2023-04-27T07:56:04.453Z,2.93
2023-04-27T07:57:04.495Z,3.20
2023-04-27T07:58:04.602Z,2.66
2023-04-27T07:59:04.621Z,3.40
2023-04-27T08:00:04.614Z,2.98
2023-04-27T08:01:04.694Z,2.69
2023-04-27T08:02:18.417Z,2.82
2023-04-27T08:03:05.964Z,2.59
2023-04-27T08:04:05.030Z,2.88
2023-04-27T08:05:04.977Z,2.73
2023-04-27T08:06:05.071Z,2.77
2023-04-27T08:07:05.167Z,3.07
2023-04-27T08:08:04.762Z,2.74
2023-04-27T08:09:04.989Z,3.16
2023-04-27T08:10:04.664Z,2.55
2023-04-27T08:11:04.661Z,2.44
2023-04-27T08:12:04.674Z,2.64
2023-04-27T08:13:04.678Z,2.49
2023-04-27T08:14:04.676Z,2.75
2023-04-27T08:15:04.613Z,3.03
2023-04-27T08:16:04.656Z,2.07
2023-04-27T08:17:04.711Z,2.40
2023-04-27T08:18:04.633Z,2.82
2023-04-27T08:19:04.566Z,2.67
2023-04-27T08:20:04.550Z,3.08
2023-04-27T08:21:04.541Z,2.26
2023-04-27T08:22:04.598Z,2.29
2023-04-27T08:23:04.570Z,2.57
2023-04-27T08:24:04.571Z,2.17
2023-04-27T08:25:04.592Z,2.72
2023-04-27T08:26:04.611Z,2.24
2023-04-27T08:27:04.623Z,2.72
2023-04-27T08:28:04.623Z,2.27
2023-04-27T08:29:15.314Z,1.92
2023-04-27T08:30:05.731Z,1.96
2023-04-27T08:31:04.702Z,1.93
2023-04-27T08:32:04.605Z,2.50
2023-04-27T08:33:04.659Z,1.83
2023-04-27T08:34:04.565Z,1.96
2023-04-27T08:35:04.639Z,1.92
2023-04-27T08:36:04.576Z,2.17
2023-04-27T08:37:04.600Z,1.97
2023-04-27T08:38:04.588Z,2.07
2023-04-27T08:39:04.571Z,1.83
2023-04-27T08:40:04.605Z,2.24
2023-04-27T08:41:17.993Z,2.22
2023-04-27T08:42:05.591Z,1.95
2023-04-27T08:43:04.621Z,2.37
2023-04-27T08:44:04.576Z,2.11
2023-04-27T08:45:04.579Z,2.22
2023-04-27T08:46:04.593Z,2.53
2023-04-27T08:47:04.548Z,1.85
2023-04-27T08:48:04.562Z,2.16
2023-04-27T08:49:04.565Z,2.62
2023-04-27T08:50:04.519Z,2.42
2023-04-27T08:51:04.536Z,2.12
2023-04-27T08:52:04.536Z,2.08
2023-04-27T08:53:04.495Z,1.97
2023-04-27T08:54:04.492Z,2.30
2023-04-27T08:55:04.545Z,2.32
2023-04-27T08:56:04.512Z,2.04
2023-04-27T08:57:04.512Z,2.14
2023-04-27T08:58:04.472Z,2.88
2023-04-27T08:59:04.481Z,2.21
2023-04-27T09:00:04.477Z,1.67
2023-04-27T09:01:04.494Z,2.59
2023-04-27T09:02:04.532Z,2.37
2023-04-27T09:03:04.703Z,2.43
2023-04-27T09:04:04.567Z,2.48
2023-04-27T09:05:04.600Z,2.81
2023-04-27T09:06:06.033Z,2.09
2023-04-27T09:07:04.426Z,2.10
2023-04-27T09:08:04.434Z,2.64
2023-04-27T09:09:04.452Z,2.12
2023-04-27T09:10:04.454Z,2.05
2023-04-27T09:11:04.429Z,2.37
2023-04-27T09:12:04.388Z,2.43
2023-04-27T09:13:04.401Z,2.48
2023-04-27T09:14:04.437Z,2.24
2023-04-27T09:15:04.430Z,2.49
2023-04-27T09:16:04.499Z,2.62
2023-04-27T09:17:04.535Z,2.63
2023-04-27T09:18:04.659Z,2.60
2023-04-27T09:19:04.616Z,2.44
2023-04-27T09:20:04.729Z,2.08
2023-04-27T09:21:04.737Z,2.90
2023-04-27T09:22:04.803Z,3.09
2023-04-27T09:23:04.909Z,2.37
2023-04-27T09:24:04.914Z,2.61
2023-04-27T09:25:05.009Z,2.46
2023-04-27T09:26:05.083Z,2.11
2023-04-27T09:27:05.163Z,2.36
2023-04-27T09:28:05.131Z,2.41
2023-04-27T09:29:05.212Z,2.36
2023-04-27T09:30:05.239Z,2.36
2023-04-27T09:31:05.262Z,2.55
2023-04-27T09:32:05.381Z,2.10
2023-04-27T09:33:05.377Z,1.92
2023-04-27T09:34:05.382Z,1.79
2023-04-27T09:35:06.050Z,3.01
2023-04-27T09:36:05.666Z,3.08
2023-04-27T09:37:05.513Z,2.76
2023-04-27T09:38:05.572Z,2.65
2023-04-27T09:39:05.577Z,3.49
2023-04-27T09:40:05.643Z,2.87
2023-04-27T09:41:05.620Z,3.07
2023-04-27T09:42:05.660Z,2.24
2023-04-27T09:43:05.666Z,3.26
2023-04-27T09:44:05.714Z,2.64
2023-04-27T09:45:05.724Z,2.68
2023-04-27T09:46:05.817Z,2.21
2023-04-27T09:47:05.780Z,2.72
2023-04-27T09:48:05.795Z,2.80
2023-04-27T09:49:05.807Z,2.49
2023-04-27T09:50:05.785Z,3.02
2023-04-27T09:51:05.797Z,2.57
2023-04-27T09:52:05.799Z,2.33
2023-04-27T09:53:05.834Z,2.39
2023-04-27T09:54:05.800Z,2.26
2023-04-27T09:55:05.823Z,2.43
2023-04-27T09:56:05.824Z,2.37
2023-04-27T09:57:05.807Z,2.52
2023-04-27T09:58:05.800Z,2.13
2023-04-27T09:59:05.832Z,1.64
2023-04-27T10:00:05.770Z,2.56
2023-04-27T10:01:05.847Z,2.55
2023-04-27T10:02:20.930Z,2.46
2023-04-27T10:03:06.930Z,2.67
2023-04-27T10:04:06.032Z,2.44
2023-04-27T10:05:05.907Z,2.39
2023-04-27T10:06:05.809Z,2.09
2023-04-27T10:07:05.812Z,2.02
2023-04-27T10:08:05.772Z,2.77
2023-04-27T10:09:05.768Z,2.08
2023-04-27T10:10:05.864Z,2.10
2023-04-27T10:11:05.787Z,2.45
2023-04-27T10:12:05.778Z,1.66
2023-04-27T10:13:05.738Z,2.10
2023-04-27T10:14:05.746Z,1.87
2023-04-27T10:15:05.762Z,1.66
2023-04-27T10:16:05.712Z,2.07
2023-04-27T10:17:05.752Z,1.89
2023-04-27T10:18:05.838Z,1.74
2023-04-27T10:19:05.689Z,1.76
2023-04-27T10:20:05.752Z,2.10
2023-04-27T10:21:05.689Z,1.67
2023-04-27T10:22:05.701Z,2.14
2023-04-27T10:23:05.670Z,1.86
2023-04-27T10:24:05.672Z,1.74
2023-04-27T10:25:05.700Z,1.60
2023-04-27T10:26:05.649Z,1.51
2023-04-27T10:27:05.736Z,1.70
2023-04-27T10:28:05.656Z,1.94
2023-04-27T10:29:05.653Z,2.75
2023-04-27T10:30:05.666Z,2.84
2023-04-27T10:31:05.678Z,3.62
2023-04-27T10:32:05.633Z,2.39
2023-04-27T10:33:05.757Z,2.90
2023-04-27T10:34:05.693Z,2.60
2023-04-27T10:35:05.764Z,2.19
2023-04-27T10:36:05.755Z,2.60
2023-04-27T10:37:05.810Z,2.44
2023-04-27T10:38:06.084Z,2.10
2023-04-27T10:39:05.887Z,2.22
2023-04-27T10:40:05.945Z,2.13
2023-04-27T10:41:05.943Z,2.21
2023-04-27T10:42:06.001Z,2.20
2023-04-27T10:43:06.055Z,1.80
2023-04-27T10:44:06.021Z,2.00
2023-04-27T10:45:06.064Z,2.32
2023-04-27T10:46:06.145Z,2.36
2023-04-27T10:47:06.125Z,1.78
2023-04-27T10:48:06.181Z,1.85
2023-04-27T10:49:06.208Z,2.46
2023-04-27T10:50:06.200Z,2.06
2023-04-27T10:51:06.295Z,2.05
2023-04-27T10:52:06.824Z,2.11
2023-04-27T10:53:06.301Z,1.89
2023-04-27T10:54:06.302Z,1.65
2023-04-27T10:55:06.321Z,1.61
2023-04-27T10:56:06.324Z,2.35
2023-04-27T10:57:06.352Z,1.58
2023-04-27T10:58:06.361Z,1.81
2023-04-27T10:59:06.440Z,1.15
2023-04-27T11:00:06.441Z,1.76
2023-04-27T11:01:06.584Z,2.06
2023-04-27T11:02:06.540Z,1.57
2023-04-27T11:03:06.528Z,1.69
2023-04-27T11:04:06.521Z,1.45
2023-04-27T11:05:06.585Z,2.02
2023-04-27T11:06:06.600Z,2.18
2023-04-27T11:07:06.590Z,1.97
2023-04-27T11:08:06.642Z,1.78
2023-04-27T11:09:06.689Z,1.38
2023-04-27T11:10:06.647Z,1.75
2023-04-27T11:11:06.675Z,1.47
2023-04-27T11:12:06.673Z,1.30
2023-04-27T11:13:06.700Z,1.14
2023-04-27T11:14:06.665Z,1.56
2023-04-27T11:15:06.768Z,1.40
2023-04-27T11:16:06.714Z,1.24
2023-04-27T11:17:06.793Z,1.44
2023-04-27T11:18:06.757Z,1.47
2023-04-27T11:19:06.721Z,1.80
2023-04-27T11:20:06.711Z,1.90
2023-04-27T11:21:07.094Z,1.57
2023-04-27T11:22:06.747Z,1.41
2023-04-27T11:23:06.747Z,1.45
2023-04-27T11:24:06.759Z,1.18
2023-04-27T11:25:06.761Z,1.76
2023-04-27T11:26:06.728Z,1.39
2023-04-27T11:27:06.733Z,1.23
2023-04-27T11:28:06.783Z,1.36
2023-04-27T11:29:06.737Z,1.23
2023-04-27T11:30:06.852Z,1.34
2023-04-27T11:31:06.799Z,1.28
2023-04-27T11:32:06.867Z,1.20
2023-04-27T11:33:06.881Z,1.33
2023-04-27T11:34:07.855Z,0.76
2023-04-27T11:35:06.892Z,1.35
2023-04-27T11:36:06.882Z,1.40
2023-04-27T11:37:18.042Z,1.08
2023-04-27T11:38:07.880Z,0.63
2023-04-27T11:39:07.043Z,1.15
2023-04-27T11:40:06.906Z,1.28
2023-04-27T11:41:06.823Z,1.31
2023-04-27T11:42:06.853Z,1.00
2023-04-27T11:43:06.853Z,0.85
2023-04-27T11:44:06.800Z,1.12
2023-04-27T11:45:06.894Z,1.21
2023-04-27T11:46:06.885Z,1.25
2023-04-27T11:47:06.923Z,1.13
2023-04-27T11:48:06.884Z,1.14
2023-04-27T11:49:06.811Z,1.05
2023-04-27T11:50:06.814Z,1.22
2023-04-27T11:51:06.801Z,1.33
2023-04-27T11:52:06.815Z,2.39
2023-04-27T11:53:06.814Z,1.08
2023-04-27T11:54:06.752Z,1.33
2023-04-27T11:55:06.761Z,1.27
2023-04-27T11:56:06.774Z,1.43
2023-04-27T11:57:06.751Z,1.34
2023-04-27T11:58:06.744Z,0.96
2023-04-27T11:59:06.743Z,1.08
2023-04-27T12:00:06.713Z,1.07
2023-04-27T12:01:07.088Z,1.20
2023-04-27T12:02:06.838Z,1.22
2023-04-27T12:03:06.903Z,1.26
2023-04-27T12:04:06.982Z,1.15
2023-04-27T12:05:07.049Z,1.02
2023-04-27T12:06:27.584Z,1.24
2023-04-27T12:07:07.817Z,1.11
2023-04-27T12:08:06.834Z,0.92
2023-04-27T12:09:06.810Z,1.04
2023-04-27T12:10:06.832Z,1.21
2023-04-27T12:11:06.819Z,1.08
2023-04-27T12:12:06.796Z,0.93
2023-04-27T12:13:06.768Z,0.93
2023-04-27T12:14:06.773Z,0.86
2023-04-27T12:15:06.743Z,2.40
2023-04-27T12:16:06.808Z,0.99
2023-04-27T12:17:06.889Z,1.18
2023-04-27T12:18:06.818Z,0.95
2023-04-27T12:19:06.773Z,1.34
2023-04-27T12:20:06.724Z,1.48
2023-04-27T12:21:08.224Z,0.81
2023-04-27T12:22:06.742Z,1.07
2023-04-27T12:23:06.717Z,1.03
2023-04-27T12:24:06.705Z,1.13
2023-04-27T12:25:06.708Z,1.11
2023-04-27T12:26:06.728Z,0.75
2023-04-27T12:27:06.729Z,0.88
2023-04-27T12:28:06.784Z,1.01
2023-04-27T12:29:06.776Z,0.96
2023-04-27T12:30:06.853Z,1.13
2023-04-27T12:31:06.941Z,1.33
2023-04-27T12:32:06.916Z,1.15
2023-04-27T12:33:07.006Z,0.98
2023-04-27T12:34:07.015Z,1.00
2023-04-27T12:35:07.041Z,1.23
2023-04-27T12:36:07.117Z,1.18
2023-04-27T12:37:07.120Z,0.97
2023-04-27T12:38:07.209Z,1.20
2023-04-27T12:39:07.275Z,1.28
2023-04-27T12:40:07.264Z,1.13
2023-04-27T12:41:07.345Z,1.23
2023-04-27T12:42:07.373Z,1.22
2023-04-27T12:43:07.461Z,1.23
2023-04-27T12:44:07.476Z,1.04
2023-04-27T12:45:07.514Z,1.02
2023-04-27T12:46:07.638Z,1.21
2023-04-27T12:47:07.627Z,1.26
2023-04-27T12:48:07.722Z,1.49
2023-04-27T12:49:07.699Z,1.49
2023-04-27T12:50:07.752Z,1.35
2023-04-27T12:51:07.816Z,1.44
2023-04-27T12:52:07.830Z,1.33
2023-04-27T12:53:07.872Z,1.74
2023-04-27T12:54:07.898Z,1.61
2023-04-27T12:55:11.052Z,1.45
2023-04-27T12:56:08.935Z,1.22
2023-04-27T12:57:07.966Z,1.62
2023-04-27T12:58:07.980Z,1.41
2023-04-27T12:59:07.917Z,1.34
2023-04-27T13:00:07.921Z,1.47
2023-04-27T13:01:07.969Z,1.30
2023-04-27T13:02:07.938Z,1.06
2023-04-27T13:03:07.978Z,1.50
2023-04-27T13:04:08.116Z,1.51
2023-04-27T13:05:07.962Z,1.24
2023-04-27T13:06:07.918Z,1.25
2023-04-27T13:07:07.955Z,1.52
2023-04-27T13:08:07.996Z,1.53
2023-04-27T13:09:08.071Z,1.26
2023-04-27T13:10:08.149Z,1.84
2023-04-27T13:11:08.211Z,1.33
2023-04-27T13:12:08.272Z,1.23
2023-04-27T13:13:08.324Z,1.39
2023-04-27T13:14:08.485Z,1.23
2023-04-27T13:15:08.527Z,1.27
2023-04-27T13:16:08.611Z,0.88
2023-04-27T13:17:08.629Z,1.23
2023-04-27T13:18:08.725Z,1.05
2023-04-27T13:19:08.763Z,1.31